Campo di Volo Carolina

IT-0074 · 皮埃蒙特, 意大利

罗盘
风向 的 风向 的 风向 到 风向 320° Campo di Volo Carolina 17/35
风: 3 kt, 1 beaufort

2 kt

2 kt
改变
0 ft 1.000 2.000 3.000 4.000 5.000
没有观察到明显的云
METAR LIMF 232250Z 32003KT 280V350 8000 NSC 06/06 Q0999

METAR Campo di Volo Carolina - IT-0074

Campo di Volo Carolina是,意大利中的小机场。 该机场位于纬度45,25286和经度7,89910。 该机场有一条跑道: 17/35. 这个机场没有ICAO代码,我们使用IT-0074作为参考。 机场在Milano FIR中。

该航空气象观测是针对Turin Airport在2024年2月23日 23:50, 当地时间进行的。

机场观察

风向为320°,速度为3 kt。 风向在280°和350°之间变化。

可见度为8 km。

有没有观察到明显的云。 没有观察到天花板。

温度为6 °C,阵风为4 °C。 露点为6 °C,相对湿度为100%。 海平面上的气压为999 hPa (QNH)。

白天

今天,太阳从07:17升起,在18:06降落。 这适用于Campo di Volo Carolina,世界夏令时可能有所不同。 当地时间与世界标准时间之间的时差为+1 小时。 当前,没有夏令时有效。

公司介绍

我们没有关于这个机场的公司信息。

体会

到Vliegles.nl去找飞行课程,跳伞和其他飞行体验。 浏览页面,了解Campo di Volo Carolina附近所有可用的活动。 你也可以使用搜索功能来寻找你所在地附近的特定飞行课程、跳伞或其他飞行体验。

跑道

Id 标题 侧风 逆风 侧风 %
17/35 174°-354° 2 kt 2 kt 56 %

逆风成分最大的方向会被突出显示,并用于横风计算。 这并不一定意味着这个方向在使用。

乌云

- NSC 没有观察到明显的云

温度 & 天气

温度 6 °C
露点 6 °C
相对湿度 100%
风寒 4 °C
Kp-index 0 (0-9)

白天

日出
07:18 (6:55)
中午
12:42
日落
18:07

小工具

你想在你的网站上有一个关于Campo di Volo Carolina的当前航空天气(METAR)的小部件吗?

显示HTML代码
?>